Time;durP1;ratioP1;P1;durP2;ratioP2;P2;SDS_P1;SDS_P2;PMS_P1;PMS_P2;Temp;Humidity;BMP_temperature;BMP_pressure;BME280_temperature;BME280_humidity;BME280_pressure;Samples;Min_cycle;Max_cycle;Signal;HPM_P1;HPM_P2
2023/05/31 00:01:53;;;;;;;;;;;;;;;;;;4966027;28;19930;-74
2023/05/31 00:04:20;;;;;;;;;;;;;;;;;;4959465;28;19925;-74
2023/05/31 00:06:47;;;;;;;;;;;;;;;;;;4961479;28;19930;-75
2023/05/31 00:09:14;;;;;;;;;;;;;;;;;;4972550;28;20361;-74
2023/05/31 00:11:41;;;;;;;;;;;;;;;;;;4961998;28;19926;-74
2023/05/31 00:14:08;;;;;;;;;;;;;;;;;;4962220;28;19927;-75
2023/05/31 00:16:35;;;;;;;;;;;;;;;;;;4957052;28;20402;-74
2023/05/31 00:19:02;;;;;;;;;;;;;;;;;;4972142;28;19926;-74
2023/05/31 00:21:30;;;;;;;;;;;;;;;;;;4974882;28;19927;-74
2023/05/31 00:23:57;;;;;;;;;;;;;;;;;;4971678;28;19941;-74
2023/05/31 00:26:24;;;;;;;;;;;;;;;;;;4974612;28;20346;-74
2023/05/31 00:28:52;;;;;;;;;;;;;;;;;;4964638;28;19976;-74
2023/05/31 00:31:19;;;;;;;;;;;;;;;;;;4974594;28;19962;-74
2023/05/31 00:33:46;;;;;;;;;;;;;;;;;;4961632;28;20029;-75
2023/05/31 00:36:13;;;;;;;;;;;;;;;;;;4959464;28;19926;-75
2023/05/31 00:38:40;;;;;;;;;;;;;;;;;;4956072;28;19930;-74
2023/05/31 00:41:07;;;;;;;;;;;;;;;;;;4959892;28;19945;-72
2023/05/31 00:43:34;;;;;;;;;;;;;;;;;;4958910;28;19926;-74
2023/05/31 00:46:02;;;;;;;;;;;;;;;;;;4961978;28;19985;-74
2023/05/31 00:48:29;;;;;;;;;;;;;;;;;;4964684;28;19926;-75
2023/05/31 00:50:56;;;;;;;;;;;;;;;;;;4959867;28;20032;-74
2023/05/31 00:53:23;;;;;;;;;;;;;;;;;;4978371;28;19976;-75
2023/05/31 00:55:51;;;;;;;;;;;;;;;;;;4955953;28;19926;-75
2023/05/31 00:58:18;;;;;;;;;;;;;;;;;;4965899;28;19926;-74
2023/05/31 01:00:45;;;;;;;;;;;;;;;;;;4963354;28;20450;-75
2023/05/31 01:03:12;;;;;;;;;;;;;;;;;;4965597;28;20420;-74
2023/05/31 01:05:40;;;;;;;;;;;;;;;;;;4956406;28;19970;-75
2023/05/31 01:08:07;;;;;;;;;;;;;;;;;;4968065;28;19933;-74
2023/05/31 01:10:34;;;;;;;;;;;;;;;;;;4973608;28;19989;-74
2023/05/31 01:13:01;;;;;;;;;;;;;;;;;;4968616;28;19930;-74
2023/05/31 01:15:28;;;;;;;;;;;;;;;;;;4960674;28;19926;-75
2023/05/31 01:18:00;;;;;;;;;;;;;;;;;;4962764;28;20033;-75
2023/05/31 01:20:27;;;;;;;;;;;;;;;;;;4961780;28;19933;-74
2023/05/31 01:22:55;;;;;;;;;;;;;;;;;;4958241;28;19930;-73
2023/05/31 01:25:22;;;;;;;;;;;;;;;;;;4972828;28;19926;-74
2023/05/31 01:27:49;;;;;;;;;;;;;;;;;;4965033;28;20539;-74
2023/05/31 01:30:16;;;;;;;;;;;;;;;;;;4957966;28;20409;-75
2023/05/31 01:32:43;;;;;;;;;;;;;;;;;;4957308;28;20298;-74
2023/05/31 01:35:10;;;;;;;;;;;;;;;;;;4973713;28;19926;-74
2023/05/31 01:37:38;;;;;;;;;;;;;;;;;;4958772;28;19984;-74
2023/05/31 01:40:05;;;;;;;;;;;;;;;;;;4957208;28;20386;-74
2023/05/31 01:42:32;;;;;;;;;;;;;;;;;;4974276;28;20022;-74
2023/05/31 01:45:00;;;;;;;;;;;;;;;;;;4962876;28;19933;-74
2023/05/31 01:47:28;;;;;;;;;;;;;;;;;;4973207;28;19930;-74
2023/05/31 01:49:55;;;;;;;;;;;;;;;;;;4954987;28;19930;-74
2023/05/31 01:52:22;;;;;;;;;;;;;;;;;;4974510;28;19926;-74
2023/05/31 01:54:49;;;;;;;;;;;;;;;;;;4962692;28;19926;-74
2023/05/31 01:57:16;;;;;;;;;;;;;;;;;;4970609;28;20012;-74
2023/05/31 01:59:43;;;;;;;;;;;;;;;;;;4957140;28;20404;-74
2023/05/31 02:02:11;;;;;;;;;;;;;;;;;;4961564;28;19926;-75
2023/05/31 02:04:38;;;;;;;;;;;;;;;;;;4963863;28;19934;-74
2023/05/31 02:07:05;;;;;;;;;;;;;;;;;;4961957;28;19926;-75
2023/05/31 02:09:32;;;;;;;;;;;;;;;;;;4974423;28;19934;-75
2023/05/31 02:11:59;;;;;;;;;;;;;;;;;;4954302;28;20050;-74
2023/05/31 02:14:26;;;;;;;;;;;;;;;;;;4979885;28;20001;-75
2023/05/31 02:16:53;;;;;;;;;;;;;;;;;;4956552;28;19958;-74
2023/05/31 02:19:25;;;;;;;;;;;;;;;;;;4962680;28;19930;-74
2023/05/31 02:21:52;;;;;;;;;;;;;;;;;;4971142;28;20394;-74
2023/05/31 02:24:19;;;;;;;;;;;;;;;;;;4960458;28;19930;-73
2023/05/31 02:26:46;;;;;;;;;;;;;;;;;;4958773;28;20317;-75
2023/05/31 02:29:13;;;;;;;;;;;;;;;;;;4961923;28;19925;-75
2023/05/31 02:31:40;;;;;;;;;;;;;;;;;;4962356;28;19930;-74
2023/05/31 02:34:08;;;;;;;;;;;;;;;;;;4962072;28;19937;-74
2023/05/31 02:36:35;;;;;;;;;;;;;;;;;;4974739;28;19933;-76
2023/05/31 02:39:02;;;;;;;;;;;;;;;;;;4969541;28;20350;-75
2023/05/31 02:41:29;;;;;;;;;;;;;;;;;;4975730;28;19926;-76
2023/05/31 02:43:56;;;;;;;;;;;;;;;;;;4968600;28;20329;-75
2023/05/31 02:46:23;;;;;;;;;;;;;;;;;;4964799;28;20403;-75
2023/05/31 02:48:50;;;;;;;;;;;;;;;;;;4955444;28;19930;-75
2023/05/31 02:51:18;;;;;;;;;;;;;;;;;;4977267;28;20005;-76
2023/05/31 02:54:03;;;;;;;;;;;;;;;;;;4978585;28;19933;-75
2023/05/31 02:56:32;;;;;;;;;;;;;;;;;;4975120;28;19956;-75
2023/05/31 02:59:10;;;;;;;;;;;;;;;;;;4983529;28;19949;-74
2023/05/31 03:01:48;;;;;;;;;;;;;;;;;;4953097;28;19961;-75
2023/05/31 03:04:34;;;;;;;;;;;;;;;;;;4975343;28;19949;-73
2023/05/31 03:07:01;;;;;;;;;;;;;;;;;;4965831;28;20317;-75
2023/05/31 03:09:30;;;;;;;;;;;;;;;;;;4975281;28;19933;-75
2023/05/31 03:11:57;;;;;;;;;;;;;;;;;;4979205;28;19930;-75
2023/05/31 03:14:25;;;;;;;;;;;;;;;;;;4977787;28;19953;-75
2023/05/31 03:16:55;;;;;;;;;;;;;;;;;;4978822;28;19930;-75
2023/05/31 03:19:22;;;;;;;;;;;;;;;;;;4956743;28;19927;-75
2023/05/31 03:21:52;;;;;;;;;;;;;;;;;;4959298;28;19930;-75
2023/05/31 03:24:19;;;;;;;;;;;;;;;;;;4961192;28;19930;-75
2023/05/31 03:26:48;;;;;;;;;;;;;;;;;;4965432;28;20532;-75
2023/05/31 03:29:15;;;;;;;;;;;;;;;;;;4981630;28;19998;-75
2023/05/31 03:31:42;;;;;;;;;;;;;;;;;;4973389;28;19989;-75
2023/05/31 03:34:09;;;;;;;;;;;;;;;;;;4966677;28;19926;-75
2023/05/31 03:36:37;;;;;;;;;;;;;;;;;;4971586;28;19931;-75
2023/05/31 03:39:16;;;;;;;;;;;;;;;;;;4973313;28;19926;-75
2023/05/31 03:41:43;;;;;;;;;;;;;;;;;;4963713;28;19977;-75
2023/05/31 03:44:10;;;;;;;;;;;;;;;;;;4974059;28;19977;-75
2023/05/31 03:46:37;;;;;;;;;;;;;;;;;;4980072;28;20371;-75
2023/05/31 03:49:05;;;;;;;;;;;;;;;;;;4974374;28;19933;-75
2023/05/31 03:51:32;;;;;;;;;;;;;;;;;;4972585;28;19973;-74
2023/05/31 03:53:59;;;;;;;;;;;;;;;;;;4964768;28;19969;-75
2023/05/31 03:56:26;;;;;;;;;;;;;;;;;;4961816;28;20002;-75
2023/05/31 03:58:53;;;;;;;;;;;;;;;;;;4964295;28;20337;-75
2023/05/31 04:01:21;;;;;;;;;;;;;;;;;;4969340;28;19926;-74
2023/05/31 04:03:49;;;;;;;;;;;;;;;;;;4962079;28;19932;-75
2023/05/31 04:06:16;;;;;;;;;;;;;;;;;;4964070;28;19926;-75
2023/05/31 04:08:44;;;;;;;;;;;;;;;;;;4961578;28;19926;-75
2023/05/31 04:11:11;;;;;;;;;;;;;;;;;;4959602;28;19926;-75
2023/05/31 04:13:38;;;;;;;;;;;;;;;;;;4952616;28;19930;-75
2023/05/31 04:16:06;;;;;;;;;;;;;;;;;;4958864;28;19926;-75
2023/05/31 04:18:33;;;;;;;;;;;;;;;;;;4972835;28;20022;-74
2023/05/31 04:21:01;;;;;;;;;;;;;;;;;;4959084;28;19929;-74
2023/05/31 04:23:28;;;;;;;;;;;;;;;;;;4962706;28;19925;-75
2023/05/31 04:25:57;;;;;;;;;;;;;;;;;;4957394;28;19926;-75
2023/05/31 04:28:24;;;;;;;;;;;;;;;;;;4972324;28;19969;-74
2023/05/31 04:30:52;;;;;;;;;;;;;;;;;;4960014;28;20389;-74
2023/05/31 04:33:19;;;;;;;;;;;;;;;;;;4971745;28;20433;-75
2023/05/31 04:35:46;;;;;;;;;;;;;;;;;;4964125;28;19926;-76
2023/05/31 04:38:14;;;;;;;;;;;;;;;;;;4960526;28;20445;-75
2023/05/31 04:40:42;;;;;;;;;;;;;;;;;;4972307;28;19961;-73
2023/05/31 04:43:09;;;;;;;;;;;;;;;;;;4961818;28;19926;-74
2023/05/31 04:45:36;;;;;;;;;;;;;;;;;;4975185;28;19933;-74
2023/05/31 04:48:04;;;;;;;;;;;;;;;;;;4968543;28;20010;-75
2023/05/31 04:50:31;;;;;;;;;;;;;;;;;;4977149;28;19926;-75
2023/05/31 04:52:58;;;;;;;;;;;;;;;;;;4956264;28;19926;-75
2023/05/31 04:55:26;;;;;;;;;;;;;;;;;;4956448;28;19926;-74
2023/05/31 04:57:53;;;;;;;;;;;;;;;;;;4977095;28;19933;-75
2023/05/31 05:00:21;;;;;;;;;;;;;;;;;;4960162;28;19926;-84
2023/05/31 05:02:57;;;;;;;;;;;;;;;;;;4971502;28;19933;-75
2023/05/31 05:05:25;;;;;;;;;;;;;;;;;;4973817;28;20384;-76
2023/05/31 05:07:52;;;;;;;;;;;;;;;;;;4971565;28;19934;-76
2023/05/31 05:10:20;;;;;;;;;;;;;;;;;;4972884;28;20357;-76
2023/05/31 05:12:48;;;;;;;;;;;;;;;;;;4955115;28;19926;-76
2023/05/31 05:15:15;;;;;;;;;;;;;;;;;;4955165;28;19984;-76
2023/05/31 05:17:45;;;;;;;;;;;;;;;;;;4959009;28;19926;-76
2023/05/31 05:20:12;;;;;;;;;;;;;;;;;;4971351;28;19926;-75
2023/05/31 05:22:41;;;;;;;;;;;;;;;;;;4974586;28;19977;-76
2023/05/31 05:25:08;;;;;;;;;;;;;;;;;;4976764;28;20006;-76
2023/05/31 05:27:35;;;;;;;;;;;;;;;;;;4957690;28;19926;-77
2023/05/31 05:30:03;;;;;;;;;;;;;;;;;;4958102;28;19926;-76
2023/05/31 05:32:30;;;;;;;;;;;;;;;;;;4971158;28;19961;-76
2023/05/31 05:34:58;;;;;;;;;;;;;;;;;;4955405;28;20282;-76
2023/05/31 05:37:25;;;;;;;;;;;;;;;;;;4986826;28;19933;-76
2023/05/31 05:39:53;;;;;;;;;;;;;;;;;;4962844;28;19926;-76
2023/05/31 05:42:20;;;;;;;;;;;;;;;;;;4954837;28;19950;-76
2023/05/31 05:44:47;;;;;;;;;;;;;;;;;;4954573;28;20353;-75
2023/05/31 05:47:14;;;;;;;;;;;;;;;;;;4961105;28;19992;-76
2023/05/31 05:49:41;;;;;;;;;;;;;;;;;;4959694;28;19926;-76
2023/05/31 05:52:09;;;;;;;;;;;;;;;;;;4960054;28;19930;-76
2023/05/31 05:54:37;;;;;;;;;;;;;;;;;;4979056;28;19930;-76
2023/05/31 05:57:06;;;;;;;;;;;;;;;;;;4970612;28;19927;-76
2023/05/31 05:59:40;;;;;;;;;;;;;;;;;;4962747;28;19933;-76
2023/05/31 06:02:18;;;;;;;;;;;;;;;;;;4958422;28;20309;-76
2023/05/31 06:04:45;;;;;;;;;;;;;;;;;;4981728;28;20008;-76
2023/05/31 06:07:12;;;;;;;;;;;;;;;;;;4962854;28;19926;-75
2023/05/31 06:09:40;;;;;;;;;;;;;;;;;;4970645;28;19936;-76
2023/05/31 06:12:07;;;;;;;;;;;;;;;;;;4955491;28;19933;-76
2023/05/31 06:14:37;;;;;;;;;;;;;;;;;;4953861;28;20405;-76
2023/05/31 06:17:06;;;;;;;;;;;;;;;;;;4984239;28;19925;-76
2023/05/31 06:19:33;;;;;;;;;;;;;;;;;;4962050;28;19934;-76
2023/05/31 06:22:00;;;;;;;;;;;;;;;;;;4977218;28;19930;-76
2023/05/31 06:24:27;;;;;;;;;;;;;;;;;;4976608;28;19969;-76
2023/05/31 06:26:54;;;;;;;;;;;;;;;;;;4966433;28;19989;-76
2023/05/31 06:29:27;;;;;;;;;;;;;;;;;;4981664;28;20321;-76
2023/05/31 06:32:04;;;;;;;;;;;;;;;;;;4971432;28;19970;-76
2023/05/31 06:34:36;;;;;;;;;;;;;;;;;;4992413;28;19932;-75
2023/05/31 06:37:03;;;;;;;;;;;;;;;;;;4969605;28;19926;-76
2023/05/31 06:39:30;;;;;;;;;;;;;;;;;;4968789;28;20013;-76
2023/05/31 06:41:59;;;;;;;;;;;;;;;;;;4957916;28;19952;-76
2023/05/31 06:45:02;;;;;;;;;;;;;;;;;;4979892;28;19932;-76
2023/05/31 06:47:48;;;;;;;;;;;;;;;;;;4977682;28;19973;-76
2023/05/31 06:50:41;;;;;;;;;;;;;;;;;;4986392;28;19957;-76
2023/05/31 06:53:28;;;;;;;;;;;;;;;;;;4983836;28;19957;-76
2023/05/31 06:56:14;;;;;;;;;;;;;;;;;;4989618;28;19925;-76
2023/05/31 06:58:41;;;;;;;;;;;;;;;;;;4961794;28;20029;-76
2023/05/31 07:01:08;;;;;;;;;;;;;;;;;;4969159;28;19976;-76
2023/05/31 07:03:36;;;;;;;;;;;;;;;;;;4967662;28;19925;-76
2023/05/31 07:06:03;;;;;;;;;;;;;;;;;;4962779;28;20345;-76
2023/05/31 07:08:31;;;;;;;;;;;;;;;;;;4968399;28;20020;-76
2023/05/31 07:11:27;;;;;;;;;;;;;;;;;;4977148;28;19933;-76
2023/05/31 07:13:59;;;;;;;;;;;;;;;;;;4971056;28;19961;-76
2023/05/31 07:16:26;;;;;;;;;;;;;;;;;;4959159;28;20333;-76
2023/05/31 07:18:53;;;;;;;;;;;;;;;;;;4964524;28;19930;-76
2023/05/31 07:21:20;;;;;;;;;;;;;;;;;;4987862;28;19930;-76
2023/05/31 07:23:47;;;;;;;;;;;;;;;;;;4978570;28;20360;-76
2023/05/31 07:26:15;;;;;;;;;;;;;;;;;;4965270;28;20461;-76
2023/05/31 07:28:42;;;;;;;;;;;;;;;;;;4972756;28;19926;-76
2023/05/31 07:31:10;;;;;;;;;;;;;;;;;;4972739;28;20361;-76
2023/05/31 07:33:37;;;;;;;;;;;;;;;;;;4987238;28;19935;-76
2023/05/31 07:36:04;;;;;;;;;;;;;;;;;;4986492;28;19941;-76
2023/05/31 07:38:31;;;;;;;;;;;;;;;;;;4973722;28;19934;-77
2023/05/31 07:40:58;;;;;;;;;;;;;;;;;;4976815;28;20391;-76
2023/05/31 07:43:25;;;;;;;;;;;;;;;;;;4978069;28;20377;-76
2023/05/31 07:45:54;;;;;;;;;;;;;;;;;;4968665;28;20006;-77
2023/05/31 07:48:21;;;;;;;;;;;;;;;;;;4963730;28;20353;-76
2023/05/31 07:50:48;;;;;;;;;;;;;;;;;;4970305;28;19930;-76
2023/05/31 07:53:15;;;;;;;;;;;;;;;;;;4967690;28;20636;-76
2023/05/31 07:55:42;;;;;;;;;;;;;;;;;;4959528;28;19930;-76
2023/05/31 07:58:11;;;;;;;;;;;;;;;;;;4973083;28;19926;-76
2023/05/31 08:00:38;;;;;;;;;;;;;;;;;;4979144;28;20405;-76
2023/05/31 08:03:05;;;;;;;;;;;;;;;;;;4974257;28;19933;-76
2023/05/31 08:05:32;;;;;;;;;;;;;;;;;;4964573;28;19941;-77
2023/05/31 08:08:00;;;;;;;;;;;;;;;;;;4978124;28;20298;-76
2023/05/31 08:10:27;;;;;;;;;;;;;;;;;;4964853;28;20438;-76
2023/05/31 08:12:54;;;;;;;;;;;;;;;;;;4970208;28;19929;-75
2023/05/31 08:15:21;;;;;;;;;;;;;;;;;;4981591;28;20099;-76
2023/05/31 08:17:49;;;;;;;;;;;;;;;;;;4980350;28;20381;-76
2023/05/31 08:20:16;;;;;;;;;;;;;;;;;;4974252;28;19933;-77
2023/05/31 08:22:44;;;;;;;;;;;;;;;;;;4971557;28;19937;-76
2023/05/31 08:25:12;;;;;;;;;;;;;;;;;;4977000;28;19930;-76
2023/05/31 08:27:40;;;;;;;;;;;;;;;;;;4977668;28;19940;-76
2023/05/31 08:30:07;;;;;;;;;;;;;;;;;;4982707;28;19932;-76
2023/05/31 08:32:34;;;;;;;;;;;;;;;;;;4958747;28;19933;-76
2023/05/31 08:35:02;;;;;;;;;;;;;;;;;;4972753;28;20029;-76
2023/05/31 08:37:29;;;;;;;;;;;;;;;;;;4986076;28;19938;-76
2023/05/31 08:39:56;;;;;;;;;;;;;;;;;;4967315;28;20353;-76
2023/05/31 08:42:23;;;;;;;;;;;;;;;;;;4958806;28;19957;-77
2023/05/31 08:44:50;;;;;;;;;;;;;;;;;;4961494;28;19972;-76
2023/05/31 08:47:17;;;;;;;;;;;;;;;;;;4988642;28;19926;-76
2023/05/31 08:49:44;;;;;;;;;;;;;;;;;;4966675;28;19927;-77
2023/05/31 08:52:11;;;;;;;;;;;;;;;;;;4963898;28;19930;-76
2023/05/31 08:54:38;;;;;;;;;;;;;;;;;;4961351;28;19926;-77
2023/05/31 08:57:05;;;;;;;;;;;;;;;;;;4979562;28;19933;-76
2023/05/31 08:59:32;;;;;;;;;;;;;;;;;;4970899;28;20364;-76
2023/05/31 09:02:00;;;;;;;;;;;;;;;;;;4982750;28;19926;-76
2023/05/31 09:04:27;;;;;;;;;;;;;;;;;;4987708;28;20005;-77
2023/05/31 09:06:54;;;;;;;;;;;;;;;;;;4981194;28;19926;-77
2023/05/31 09:09:22;;;;;;;;;;;;;;;;;;4955773;28;19981;-76
2023/05/31 09:11:49;;;;;;;;;;;;;;;;;;4962757;28;19926;-77
2023/05/31 09:14:16;;;;;;;;;;;;;;;;;;4962392;28;19926;-76
2023/05/31 09:16:43;;;;;;;;;;;;;;;;;;4959675;28;19926;-77
2023/05/31 09:19:10;;;;;;;;;;;;;;;;;;4987667;28;19925;-75
2023/05/31 09:21:37;;;;;;;;;;;;;;;;;;4968539;28;19931;-76
2023/05/31 09:24:04;;;;;;;;;;;;;;;;;;4974056;28;19980;-77
2023/05/31 09:26:32;;;;;;;;;;;;;;;;;;4964396;28;19926;-77
2023/05/31 09:28:59;;;;;;;;;;;;;;;;;;4978310;28;19926;-77
2023/05/31 09:31:27;;;;;;;;;;;;;;;;;;4963348;28;19929;-76
2023/05/31 09:33:54;;;;;;;;;;;;;;;;;;4975673;28;19934;-76
2023/05/31 09:36:21;;;;;;;;;;;;;;;;;;4969665;28;19937;-77
2023/05/31 09:38:49;;;;;;;;;;;;;;;;;;4976375;28;19958;-77
2023/05/31 09:41:16;;;;;;;;;;;;;;;;;;4969250;28;19926;-76
2023/05/31 09:43:43;;;;;;;;;;;;;;;;;;4969969;28;20650;-76
2023/05/31 09:46:10;;;;;;;;;;;;;;;;;;4977073;28;20393;-76
2023/05/31 09:48:37;;;;;;;;;;;;;;;;;;4963825;28;20478;-76
2023/05/31 09:51:05;;;;;;;;;;;;;;;;;;4966227;28;19937;-76
2023/05/31 09:53:32;;;;;;;;;;;;;;;;;;4968149;28;19933;-76
2023/05/31 09:55:59;;;;;;;;;;;;;;;;;;4965947;28;19985;-76
2023/05/31 09:58:30;;;;;;;;;;;;;;;;;;4963395;28;20366;-77
2023/05/31 10:00:57;;;;;;;;;;;;;;;;;;4975301;28;19930;-77
2023/05/31 10:03:24;;;;;;;;;;;;;;;;;;4970469;28;19961;-77
2023/05/31 10:05:52;;;;;;;;;;;;;;;;;;4970986;28;19927;-76
2023/05/31 10:08:19;;;;;;;;;;;;;;;;;;4968393;28;19994;-76
2023/05/31 10:10:46;;;;;;;;;;;;;;;;;;4956573;28;20267;-77
2023/05/31 10:13:13;;;;;;;;;;;;;;;;;;4965981;28;19933;-77
2023/05/31 10:15:40;;;;;;;;;;;;;;;;;;4961629;28;20401;-76
2023/05/31 10:18:07;;;;;;;;;;;;;;;;;;4982844;28;20294;-76
2023/05/31 10:20:34;;;;;;;;;;;;;;;;;;4971760;28;19937;-77
2023/05/31 10:23:01;;;;;;;;;;;;;;;;;;4983202;28;19937;-77
2023/05/31 10:25:28;;;;;;;;;;;;;;;;;;4959489;28;19926;-77
2023/05/31 10:27:56;;;;;;;;;;;;;;;;;;4980659;28;19926;-77
2023/05/31 10:30:25;;;;;;;;;;;;;;;;;;4959805;28;19964;-76
2023/05/31 10:32:53;;;;;;;;;;;;;;;;;;4966259;28;20411;-76
2023/05/31 10:35:20;;;;;;;;;;;;;;;;;;4965781;28;19926;-76
2023/05/31 10:37:47;;;;;;;;;;;;;;;;;;4963218;28;20397;-76
2023/05/31 10:40:14;;;;;;;;;;;;;;;;;;4959159;28;19962;-77
2023/05/31 10:42:41;;;;;;;;;;;;;;;;;;4959978;28;19961;-76
2023/05/31 10:45:09;;;;;;;;;;;;;;;;;;4972783;28;19985;-77
2023/05/31 10:47:36;;;;;;;;;;;;;;;;;;4961985;28;19926;-77
2023/05/31 10:50:04;;;;;;;;;;;;;;;;;;4976442;28;19926;-76
2023/05/31 10:52:31;;;;;;;;;;;;;;;;;;4984594;28;20294;-77
2023/05/31 10:54:58;;;;;;;;;;;;;;;;;;4967016;28;19956;-77
2023/05/31 10:57:25;;;;;;;;;;;;;;;;;;4961284;28;20310;-76
2023/05/31 10:59:52;;;;;;;;;;;;;;;;;;4971108;28;19930;-77
2023/05/31 11:02:19;;;;;;;;;;;;;;;;;;4958224;28;20349;-77
2023/05/31 11:04:49;;;;;;;;;;;;;;;;;;4973405;28;19932;-76
2023/05/31 11:07:17;;;;;;;;;;;;;;;;;;4977171;28;19926;-77
2023/05/31 11:09:45;;;;;;;;;;;;;;;;;;4975780;28;19926;-77
2023/05/31 11:12:12;;;;;;;;;;;;;;;;;;4962296;28;19930;-77
2023/05/31 11:14:39;;;;;;;;;;;;;;;;;;4967986;28;19930;-77
2023/05/31 11:17:07;;;;;;;;;;;;;;;;;;4972370;28;20009;-77
2023/05/31 11:19:34;;;;;;;;;;;;;;;;;;4958216;28;19981;-76
2023/05/31 11:22:01;;;;;;;;;;;;;;;;;;4974187;28;19930;-77
2023/05/31 11:24:28;;;;;;;;;;;;;;;;;;4980335;28;19930;-77
2023/05/31 11:26:55;;;;;;;;;;;;;;;;;;4970464;28;19949;-77
2023/05/31 11:29:22;;;;;;;;;;;;;;;;;;4966328;28;20377;-77
2023/05/31 11:31:50;;;;;;;;;;;;;;;;;;4966798;28;19961;-77
2023/05/31 11:34:17;;;;;;;;;;;;;;;;;;4967782;28;19930;-77
2023/05/31 11:36:46;;;;;;;;;;;;;;;;;;4956253;28;20361;-77
2023/05/31 11:39:13;;;;;;;;;;;;;;;;;;4973224;28;19970;-77
2023/05/31 11:41:40;;;;;;;;;;;;;;;;;;4979281;28;19933;-76
2023/05/31 11:44:07;;;;;;;;;;;;;;;;;;4966620;28;20364;-77
2023/05/31 11:46:34;;;;;;;;;;;;;;;;;;4986887;28;19932;-77
2023/05/31 11:49:01;;;;;;;;;;;;;;;;;;4966843;28;20117;-77
2023/05/31 11:51:28;;;;;;;;;;;;;;;;;;4982309;28;19984;-77
2023/05/31 11:53:56;;;;;;;;;;;;;;;;;;4967368;28;19932;-77
2023/05/31 11:56:24;;;;;;;;;;;;;;;;;;4972095;28;20025;-78
2023/05/31 11:58:52;;;;;;;;;;;;;;;;;;4965245;28;19926;-77
2023/05/31 12:01:19;;;;;;;;;;;;;;;;;;4981791;28;20304;-76
2023/05/31 12:03:47;;;;;;;;;;;;;;;;;;4972551;28;19926;-78
2023/05/31 12:06:14;;;;;;;;;;;;;;;;;;4964975;28;19926;-77
2023/05/31 12:08:41;;;;;;;;;;;;;;;;;;4960538;28;20401;-77
2023/05/31 12:11:08;;;;;;;;;;;;;;;;;;4968540;28;20385;-77
2023/05/31 12:13:35;;;;;;;;;;;;;;;;;;4984132;28;19930;-77
2023/05/31 12:16:02;;;;;;;;;;;;;;;;;;4968282;28;19925;-77
2023/05/31 12:18:29;;;;;;;;;;;;;;;;;;4962296;28;19929;-78
2023/05/31 12:20:56;;;;;;;;;;;;;;;;;;4971721;28;19933;-77
2023/05/31 12:23:23;;;;;;;;;;;;;;;;;;4961040;28;20298;-78
2023/05/31 12:25:52;;;;;;;;;;;;;;;;;;4967238;28;21313;-77
2023/05/31 12:28:19;;;;;;;;;;;;;;;;;;4971057;28;19981;-77
2023/05/31 12:30:46;;;;;;;;;;;;;;;;;;4964491;28;20349;-78
2023/05/31 12:33:14;;;;;;;;;;;;;;;;;;4977670;28;19926;-77
2023/05/31 12:35:41;;;;;;;;;;;;;;;;;;4980955;28;20437;-78
2023/05/31 12:38:08;;;;;;;;;;;;;;;;;;4971540;28;19930;-77
2023/05/31 12:40:35;;;;;;;;;;;;;;;;;;4958801;28;19933;-77
2023/05/31 12:43:02;;;;;;;;;;;;;;;;;;4965963;28;19926;-78
2023/05/31 12:45:29;;;;;;;;;;;;;;;;;;4961368;28;19935;-77
2023/05/31 12:47:56;;;;;;;;;;;;;;;;;;4975709;28;19934;-78
2023/05/31 12:50:24;;;;;;;;;;;;;;;;;;4977640;28;19935;-78
2023/05/31 12:52:52;;;;;;;;;;;;;;;;;;4957080;28;20021;-77
2023/05/31 12:55:19;;;;;;;;;;;;;;;;;;4964464;28;20382;-77
2023/05/31 12:57:46;;;;;;;;;;;;;;;;;;4963586;28;19929;-77
2023/05/31 13:00:13;;;;;;;;;;;;;;;;;;4968572;28;19937;-77
2023/05/31 13:02:41;;;;;;;;;;;;;;;;;;4961937;28;19926;-77
2023/05/31 13:05:08;;;;;;;;;;;;;;;;;;4965803;28;19926;-77
2023/05/31 13:07:36;;;;;;;;;;;;;;;;;;4979602;28;19930;-77
2023/05/31 13:10:03;;;;;;;;;;;;;;;;;;4979745;28;19930;-77
2023/05/31 13:12:30;;;;;;;;;;;;;;;;;;4966686;28;19960;-77
2023/05/31 13:14:57;;;;;;;;;;;;;;;;;;4969054;28;19930;-77
2023/05/31 13:17:24;;;;;;;;;;;;;;;;;;4978721;28;19930;-78
2023/05/31 13:19:51;;;;;;;;;;;;;;;;;;4955457;28;19930;-77
2023/05/31 13:22:18;;;;;;;;;;;;;;;;;;4979069;28;19926;-77
2023/05/31 13:24:45;;;;;;;;;;;;;;;;;;4971357;28;20360;-77
2023/05/31 13:27:13;;;;;;;;;;;;;;;;;;4975677;28;19933;-78
2023/05/31 13:29:40;;;;;;;;;;;;;;;;;;4959512;28;20029;-77
2023/05/31 13:32:08;;;;;;;;;;;;;;;;;;4954904;28;20349;-78
2023/05/31 13:34:35;;;;;;;;;;;;;;;;;;4962623;28;19933;-78
2023/05/31 13:37:02;;;;;;;;;;;;;;;;;;4967371;28;19980;-78
2023/05/31 13:39:29;;;;;;;;;;;;;;;;;;4965293;28;19926;-78
2023/05/31 13:41:57;;;;;;;;;;;;;;;;;;4986348;23;19929;-75
2023/05/31 13:44:24;;;;;;;;;;;;;;;;;;4993900;28;19926;-75
2023/05/31 13:46:51;;;;;;;;;;;;;;;;;;4992542;28;20024;-75
2023/05/31 13:49:20;;;;;;;;;;;;;;;;;;5001293;28;19929;-74
2023/05/31 13:51:46;;;;;;;;;;;;;;;;;;4997610;28;19925;-74
2023/05/31 13:54:14;;;;;;;;;;;;;;;;;;5003480;28;19992;-74
2023/05/31 13:56:41;;;;;;;;;;;;;;;;;;4990417;28;20016;-72
2023/05/31 13:59:09;;;;;;;;;;;;;;;;;;4996114;28;19933;-74
2023/05/31 14:01:36;;;;;;;;;;;;;;;;;;4989953;28;19996;-75
2023/05/31 14:04:03;;;;;;;;;;;;;;;;;;5001099;28;19926;-72
2023/05/31 14:06:30;;;;;;;;;;;;;;;;;;4990150;28;19932;-75
2023/05/31 14:08:57;;;;;;;;;;;;;;;;;;4990106;28;19932;-74
2023/05/31 14:11:26;;;;;;;;;;;;;;;;;;4993920;28;19926;-75
2023/05/31 14:13:53;;;;;;;;;;;;;;;;;;4994383;28;19986;-74
2023/05/31 14:16:20;;;;;;;;;;;;;;;;;;4994532;28;19930;-75
2023/05/31 14:18:48;;;;;;;;;;;;;;;;;;4998489;28;20397;-75
2023/05/31 14:21:15;;;;;;;;;;;;;;;;;;4994254;28;19933;-76
2023/05/31 14:23:42;;;;;;;;;;;;;;;;;;4993947;28;19930;-74
2023/05/31 14:26:09;;;;;;;;;;;;;;;;;;4993782;28;19972;-74
2023/05/31 14:28:36;;;;;;;;;;;;;;;;;;4990145;28;20337;-75
2023/05/31 14:31:03;;;;;;;;;;;;;;;;;;4997135;28;19925;-76
2023/05/31 14:33:30;;;;;;;;;;;;;;;;;;4990161;28;20332;-75
2023/05/31 14:35:57;;;;;;;;;;;;;;;;;;4999034;28;19926;-74
2023/05/31 14:38:25;;;;;;;;;;;;;;;;;;4995469;28;20348;-73
2023/05/31 14:40:52;;;;;;;;;;;;;;;;;;4999303;28;19925;-74
2023/05/31 14:43:20;;;;;;;;;;;;;;;;;;4998719;28;19933;-75
2023/05/31 14:45:47;;;;;;;;;;;;;;;;;;4999388;28;20361;-75
2023/05/31 14:48:14;;;;;;;;;;;;;;;;;;4996176;28;19926;-76
2023/05/31 14:50:42;;;;;;;;;;;;;;;;;;4999323;28;20032;-76
2023/05/31 14:53:11;;;;;;;;;;;;;;;;;;4996827;28;19926;-76
2023/05/31 14:55:38;;;;;;;;;;;;;;;;;;4997255;28;20282;-74
2023/05/31 14:58:06;;;;;;;;;;;;;;;;;;4997706;28;20028;-74
2023/05/31 15:00:33;;;;;;;;;;;;;;;;;;5003106;28;20397;-75
2023/05/31 15:03:00;;;;;;;;;;;;;;;;;;5000592;28;19929;-73
2023/05/31 15:05:27;;;;;;;;;;;;;;;;;;5000151;28;19926;-72
2023/05/31 15:07:54;;;;;;;;;;;;;;;;;;5000158;28;19926;-74
2023/05/31 15:10:21;;;;;;;;;;;;;;;;;;4994631;28;19926;-74
2023/05/31 15:12:48;;;;;;;;;;;;;;;;;;4989203;28;19961;-73
2023/05/31 15:15:15;;;;;;;;;;;;;;;;;;4989963;28;20173;-72
2023/05/31 15:17:43;;;;;;;;;;;;;;;;;;4997634;28;19937;-72
2023/05/31 15:20:10;;;;;;;;;;;;;;;;;;4992722;28;19926;-75
2023/05/31 15:22:38;;;;;;;;;;;;;;;;;;4996800;28;19933;-73
2023/05/31 15:25:05;;;;;;;;;;;;;;;;;;4994668;28;19929;-74
2023/05/31 15:27:32;;;;;;;;;;;;;;;;;;5000495;28;19933;-74
2023/05/31 15:30:00;;;;;;;;;;;;;;;;;;4994315;28;19926;-75
2023/05/31 15:32:27;;;;;;;;;;;;;;;;;;4993074;28;19937;-75
2023/05/31 15:34:54;;;;;;;;;;;;;;;;;;4993931;28;19966;-74
2023/05/31 15:37:21;;;;;;;;;;;;;;;;;;4997527;28;19926;-75
2023/05/31 15:39:48;;;;;;;;;;;;;;;;;;4996056;28;19959;-75
2023/05/31 15:42:16;;;;;;;;;;;;;;;;;;4994226;28;20343;-74
2023/05/31 15:44:43;;;;;;;;;;;;;;;;;;4994784;28;19992;-74
2023/05/31 15:47:10;;;;;;;;;;;;;;;;;;4991165;28;19925;-74
2023/05/31 15:49:37;;;;;;;;;;;;;;;;;;4995849;28;19926;-73
2023/05/31 15:52:04;;;;;;;;;;;;;;;;;;4994874;28;19988;-74
2023/05/31 15:54:31;;;;;;;;;;;;;;;;;;4993189;28;19925;-75
2023/05/31 15:56:58;;;;;;;;;;;;;;;;;;4986478;28;19976;-75
2023/05/31 15:59:25;;;;;;;;;;;;;;;;;;4993713;28;19929;-75
2023/05/31 16:01:53;;;;;;;;;;;;;;;;;;4989066;28;19957;-77
2023/05/31 16:04:20;;;;;;;;;;;;;;;;;;4993532;28;19926;-76
2023/05/31 16:06:48;;;;;;;;;;;;;;;;;;4992104;28;19933;-76
2023/05/31 16:09:15;;;;;;;;;;;;;;;;;;5001880;28;19925;-78
2023/05/31 16:11:42;;;;;;;;;;;;;;;;;;4990000;28;19926;-75
2023/05/31 16:14:10;;;;;;;;;;;;;;;;;;4996183;28;19933;-75
2023/05/31 16:16:37;;;;;;;;;;;;;;;;;;4988820;28;20408;-76
2023/05/31 16:19:04;;;;;;;;;;;;;;;;;;4991908;28;19925;-78
2023/05/31 16:21:31;;;;;;;;;;;;;;;;;;4992067;28;19929;-77
2023/05/31 16:23:58;;;;;;;;;;;;;;;;;;4996552;28;19925;-78
2023/05/31 16:26:26;;;;;;;;;;;;;;;;;;4996527;28;19929;-74
2023/05/31 16:28:53;;;;;;;;;;;;;;;;;;4995383;28;19937;-74
2023/05/31 16:31:20;;;;;;;;;;;;;;;;;;4995172;28;19971;-76
2023/05/31 16:33:48;;;;;;;;;;;;;;;;;;4993770;28;19929;-77
2023/05/31 16:36:15;;;;;;;;;;;;;;;;;;4991896;28;19926;-76
2023/05/31 16:38:42;;;;;;;;;;;;;;;;;;4986969;28;19929;-75
2023/05/31 16:41:09;;;;;;;;;;;;;;;;;;4988358;28;19937;-77
2023/05/31 16:43:36;;;;;;;;;;;;;;;;;;4994531;28;19925;-77
2023/05/31 16:46:03;;;;;;;;;;;;;;;;;;4993147;28;19926;-76
2023/05/31 16:48:31;;;;;;;;;;;;;;;;;;4991640;28;19925;-74
2023/05/31 16:50:58;;;;;;;;;;;;;;;;;;4998240;28;19926;-77